Time;durP1;ratioP1;P1;durP2;ratioP2;P2;SDS_P1;SDS_P2;PMS_P1;PMS_P2;Temp;Humidity;BMP_temperature;BMP_pressure;BME280_temperature;BME280_humidity;BME280_pressure;Samples;Min_cycle;Max_cycle;Signal;HPM_P1;HPM_P2
2020/12/13 00:00:32;;;;;;;23.18;16.52;;;;;;;-0.29;92.68;98992.12;1775109;80;20973;-68
2020/12/13 00:03:00;;;;;;;23.52;16.48;;;;;;;-0.29;92.68;98991.28;1766424;79;21028;-67
2020/12/13 00:05:27;;;;;;;24.75;16.15;;;;;;;-0.29;92.74;98986.99;1775496;80;22562;-69
2020/12/13 00:07:54;;;;;;;27.17;19.48;;;;;;;-0.32;92.72;98987.05;1777045;80;21028;-68
2020/12/13 00:10:23;;;;;;;29.15;17.55;;;;;;;-0.32;92.74;98994.73;1762109;79;21550;-68
2020/12/13 00:12:52;;;;;;;30.95;19.60;;;;;;;-0.33;92.75;98990.48;1758339;79;21008;-68
2020/12/13 00:15:19;;;;;;;29.87;19.15;;;;;;;-0.32;92.79;98992.17;1765571;79;21187;-69
2020/12/13 00:17:47;;;;;;;29.98;18.25;;;;;;;-0.31;92.78;98988.76;1761050;80;21192;-69
2020/12/13 00:20:15;;;;;;;30.55;18.35;;;;;;;-0.31;92.73;98988.76;1769081;80;21279;-68
2020/12/13 00:22:42;;;;;;;29.82;16.75;;;;;;;-0.32;92.74;98999.87;1761103;80;20965;-68
2020/12/13 00:25:09;;;;;;;30.60;17.80;;;;;;;-0.34;92.78;98991.34;1769293;80;21060;-68
2020/12/13 00:27:37;;;;;;;29.57;18.77;;;;;;;-0.37;92.78;98990.55;1767776;79;21243;-68
2020/12/13 00:30:05;;;;;;;25.70;16.70;;;;;;;-0.37;92.82;98996.52;1760182;80;21634;-69
2020/12/13 00:32:32;;;;;;;29.30;18.12;;;;;;;-0.38;92.85;98989.70;1769827;80;21011;-69
2020/12/13 00:34:59;;;;;;;31.48;18.20;;;;;;;-0.38;92.81;98993.99;1756970;79;21243;-68
2020/12/13 00:37:27;;;;;;;35.38;19.35;;;;;;;-0.39;92.85;98999.97;1766301;80;21057;-69
2020/12/13 00:39:54;;;;;;;41.50;20.37;;;;;;;-0.41;92.88;99005.14;1765693;80;21256;-69
2020/12/13 00:42:21;;;;;;;35.13;20.17;;;;;;;-0.41;92.87;99006.42;1775235;80;21824;-68
2020/12/13 00:44:48;;;;;;;43.05;20.68;;;;;;;-0.41;92.88;99006.42;1770691;79;21076;-68
2020/12/13 00:47:15;;;;;;;30.45;17.65;;;;;;;-0.43;92.88;99001.74;1761100;79;21326;-69
2020/12/13 00:49:42;;;;;;;28.95;18.10;;;;;;;-0.40;92.90;99005.98;1766987;80;21577;-68
2020/12/13 00:52:09;;;;;;;31.57;17.00;;;;;;;-0.41;92.87;99006.42;1760926;80;21175;-68
2020/12/13 00:54:37;;;;;;;25.37;16.73;;;;;;;-0.41;92.87;99005.14;1763379;80;21721;-69
2020/12/13 00:57:04;;;;;;;22.58;14.83;;;;;;;-0.42;92.87;99006.02;1757804;80;21066;-69
2020/12/13 00:59:31;;;;;;;21.15;15.25;;;;;;;-0.43;92.83;99009.44;1771786;79;21593;-68
2020/12/13 01:01:58;;;;;;;24.12;15.03;;;;;;;-0.44;92.88;99010.31;1765085;79;21142;-69
2020/12/13 01:04:25;;;;;;;26.75;16.95;;;;;;;-0.45;92.90;99013.73;1769900;80;21134;-69
2020/12/13 01:06:53;;;;;;;30.57;17.80;;;;;;;-0.45;92.90;99013.73;1766191;80;21611;-69
2020/12/13 01:09:20;;;;;;;34.55;17.85;;;;;;;-0.48;92.92;99016.34;1773193;80;21651;-68
2020/12/13 01:11:47;;;;;;;32.75;17.67;;;;;;;-0.48;92.96;99017.22;1776092;80;21183;-69
2020/12/13 01:14:14;;;;;;;25.05;16.02;;;;;;;-0.49;92.95;99017.22;1784010;80;21071;-68
2020/12/13 01:16:41;;;;;;;24.45;16.10;;;;;;;-0.49;92.96;99010.81;1765878;80;21162;-68
2020/12/13 01:19:08;;;;;;;23.15;15.63;;;;;;;-0.49;92.96;99012.94;1768504;80;22147;-68
2020/12/13 01:21:36;;;;;;;25.50;16.85;;;;;;;-0.48;92.96;99015.06;1769215;78;21153;-67
2020/12/13 01:24:03;;;;;;;20.12;13.93;;;;;;;-0.49;93.00;99012.09;1781942;80;21632;-68
2020/12/13 01:26:30;;;;;;;27.10;14.30;;;;;;;-0.49;92.99;99009.53;1765248;79;21592;-68
2020/12/13 01:28:57;;;;;;;22.40;15.35;;;;;;;-0.51;93.05;99009.98;1773166;80;21613;-68
2020/12/13 01:31:26;;;;;;;23.83;15.72;;;;;;;-0.51;93.04;99016.39;1781556;80;21202;-69
2020/12/13 01:33:53;;;;;;;24.70;15.10;;;;;;;-0.49;93.03;99013.38;1782790;80;21317;-68
2020/12/13 01:36:23;;;;;;;25.43;16.15;;;;;;;-0.49;93.01;99006.97;1768830;80;21135;-68
2020/12/13 01:38:52;;;;;;;26.33;15.58;;;;;;;-0.48;93.01;99016.34;1771380;80;21032;-69
2020/12/13 01:41:21;;;;;;;22.02;14.60;;;;;;;-0.47;93.00;99014.21;1783700;80;20976;-69
2020/12/13 01:44:01;;;;;;;22.58;14.65;;;;;;;-0.48;93.03;99016.34;1775912;80;21186;-69
2020/12/13 01:46:29;;;;;;;24.32;15.55;;;;;;;-0.48;93.01;99017.63;1781842;79;21040;-69
2020/12/13 01:49:08;;;;;;;27.17;16.73;;;;;;;-0.48;93.02;99019.78;1766235;80;21091;-68
2020/12/13 01:51:51;;;;;;;28.73;17.57;;;;;;;-0.48;93.02;99011.21;1747488;81;21177;-69
2020/12/13 01:54:15;;;;;;;25.30;16.65;;;;;;;-0.48;93.03;99022.75;1710012;82;21262;-68
2020/12/13 01:56:50;;;;;;;23.87;16.97;;;;;;;-0.48;93.05;99027.88;1734343;81;21280;-68
2020/12/13 01:59:20;;;;;;;23.52;15.50;;;;;;;-0.48;93.03;99021.47;1732563;81;21053;-68
2020/12/13 02:02:00;;;;;;;25.23;16.73;;;;;;;-0.49;93.08;99026.20;1726451;82;21037;-68
2020/12/13 02:04:28;;;;;;;22.13;16.40;;;;;;;-0.47;93.12;99030.88;1728791;82;21008;-68
2020/12/13 02:06:57;;;;;;;25.52;17.25;;;;;;;-0.49;93.07;99030.05;1735275;80;21549;-68
2020/12/13 02:09:25;;;;;;;27.93;17.57;;;;;;;-0.50;93.09;99030.92;1711064;82;21301;-69
2020/12/13 02:11:52;;;;;;;28.40;18.07;;;;;;;-0.50;93.16;99036.05;1708684;82;21197;-68
2020/12/13 02:14:20;;;;;;;23.45;15.93;;;;;;;-0.51;93.15;99036.46;1702168;83;20987;-68
2020/12/13 02:16:48;;;;;;;25.27;16.07;;;;;;;-0.50;93.19;99024.52;1707523;83;21054;-69
2020/12/13 02:19:16;;;;;;;24.60;16.50;;;;;;;-0.51;93.17;99031.77;1684052;84;21055;-69
2020/12/13 02:21:48;;;;;;;22.32;14.73;;;;;;;-0.53;93.23;99036.09;1678021;84;21269;-68
2020/12/13 02:24:16;;;;;;;25.90;14.98;;;;;;;-0.52;93.32;99036.06;1679006;84;21220;-69
2020/12/13 02:26:45;;;;;;;25.88;16.70;;;;;;;-0.53;93.26;99036.09;1675197;84;21181;-68
2020/12/13 02:29:13;;;;;;;24.05;16.23;;;;;;;-0.52;93.30;99039.06;1679265;84;21006;-69
2020/12/13 02:31:40;;;;;;;;;;;;;;;-0.52;93.26;99037.78;1683035;84;21181;-69
2020/12/13 02:34:08;;;;;;;26.45;16.60;;;;;;;-0.51;93.31;99040.75;1677306;83;22388;-68
2020/12/13 02:36:35;;;;;;;23.35;15.78;;;;;;;-0.51;93.27;99039.47;1685002;83;21053;-68
2020/12/13 02:39:06;;;;;;;24.92;16.35;;;;;;;-0.50;93.28;99044.59;1681899;84;21019;-69
2020/12/13 02:41:34;;;;;;;27.42;16.97;;;;;;;-0.50;93.25;99043.75;1680496;84;21419;-69
2020/12/13 02:44:01;;;;;;;23.92;16.57;;;;;;;-0.50;93.33;99043.75;1673668;84;21000;-68
2020/12/13 02:46:28;;;;;;;22.70;14.15;;;;;;;-0.51;93.27;99042.03;1682727;84;21211;-68
2020/12/13 02:48:55;;;;;;;31.30;17.65;;;;;;;-0.52;93.37;99040.34;1677752;84;21070;-69
2020/12/13 02:51:22;;;;;;;31.25;17.32;;;;;;;-0.54;93.39;99036.95;1675587;84;21071;-68
2020/12/13 02:53:51;;;;;;;31.90;15.72;;;;;;;-0.56;93.44;99032.27;1676764;83;21225;-68
2020/12/13 02:56:19;;;;;;;27.73;16.87;;;;;;;-0.56;93.44;99030.58;1669108;84;21640;-68
2020/12/13 02:58:46;;;;;;;33.10;17.92;;;;;;;-0.56;93.48;99032.27;1680038;84;21425;-68
2020/12/13 03:01:14;;;;;;;27.00;16.32;;;;;;;-0.56;93.54;99037.39;1676706;84;21130;-68
2020/12/13 03:03:41;;;;;;;34.88;17.62;;;;;;;-0.56;93.55;99037.39;1679392;84;21201;-68
2020/12/13 03:06:08;;;;;;;30.32;17.02;;;;;;;-0.56;93.50;99039.55;1677085;83;26693;-69
2020/12/13 03:08:35;;;;;;;25.23;16.80;;;;;;;-0.54;93.53;99042.08;1684585;83;21121;-69
2020/12/13 03:11:02;;;;;;;31.80;18.67;;;;;;;-0.55;93.49;99044.23;1722212;81;22236;-68
2020/12/13 03:13:30;;;;;;;25.37;16.05;;;;;;;-0.54;93.49;99048.05;1740570;81;21151;-68
2020/12/13 03:15:57;;;;;;;28.65;16.90;;;;;;;-0.53;93.46;99056.61;1748720;81;21203;-68
2020/12/13 03:18:24;;;;;;;25.80;15.68;;;;;;;-0.53;93.44;99054.05;1727807;82;21237;-68
2020/12/13 03:20:51;;;;;;;25.60;16.77;;;;;;;-0.53;93.40;99056.61;1712381;83;21179;-68
2020/12/13 03:23:18;;;;;;;27.58;16.37;;;;;;;-0.53;93.40;99056.61;1733762;81;21720;-68
2020/12/13 03:25:47;;;;;;;26.80;16.75;;;;;;;-0.51;93.42;99059.98;1742577;80;21223;-68
2020/12/13 03:28:14;;;;;;;25.25;16.60;;;;;;;-0.50;93.44;99061.70;1733085;81;21162;-69
2020/12/13 03:30:41;;;;;;;23.65;15.20;;;;;;;-0.50;93.39;99064.27;1748849;81;21557;-69
2020/12/13 03:33:08;;;;;;;26.20;16.30;;;;;;;-0.49;93.41;99060.82;1735015;80;21171;-68
2020/12/13 03:35:35;;;;;;;25.30;15.95;;;;;;;-0.48;93.41;99058.25;1714926;83;21207;-69
2020/12/13 03:38:02;;;;;;;29.67;18.02;;;;;;;-0.48;93.42;99058.66;1736221;81;21134;-68
2020/12/13 03:40:29;;;;;;;25.80;17.30;;;;;;;-0.48;93.38;99057.38;1742547;80;21016;-68
2020/12/13 03:42:56;;;;;;;23.90;16.45;;;;;;;-0.45;93.43;99058.61;1743617;80;21602;-67
2020/12/13 03:45:23;;;;;;;25.82;16.85;;;;;;;-0.47;93.35;99061.22;1739408;81;21163;-69
2020/12/13 03:47:50;;;;;;;24.67;16.12;;;;;;;-0.48;93.41;99063.78;1704959;83;21708;-68
2020/12/13 03:50:17;;;;;;;26.25;15.60;;;;;;;-0.50;93.42;99066.83;1748115;81;21175;-68
2020/12/13 03:52:44;;;;;;;23.92;16.27;;;;;;;-0.51;93.42;99061.27;1703827;83;21018;-68
2020/12/13 03:55:11;;;;;;;26.10;15.63;;;;;;;-0.52;93.44;99069.40;1733758;81;21191;-69
2020/12/13 03:57:38;;;;;;;23.77;16.62;;;;;;;-0.54;93.51;99057.46;1736002;80;21232;-68
2020/12/13 04:00:06;;;;;;;23.22;15.48;;;;;;;-0.56;93.54;99061.75;1741012;80;21218;-68
2020/12/13 04:02:33;;;;;;;25.45;16.70;;;;;;;-0.57;93.54;99065.20;1732630;80;21036;-69
2020/12/13 04:05:00;;;;;;;29.50;15.63;;;;;;;-0.58;93.53;99062.23;1737591;80;21058;-68
2020/12/13 04:07:27;;;;;;;24.20;15.10;;;;;;;-0.58;93.54;99063.52;1741741;80;21206;-68
2020/12/13 04:09:54;;;;;;;25.62;16.42;;;;;;;-0.58;93.57;99060.95;1725823;80;21052;-68
2020/12/13 04:12:21;;;;;;;22.17;16.17;;;;;;;-0.60;93.59;99067.80;1708715;82;21603;-68
2020/12/13 04:14:48;;;;;;;23.10;16.27;;;;;;;-0.62;93.65;99064.41;1711713;80;21008;-70
2020/12/13 04:17:15;;;;;;;20.92;15.65;;;;;;;-0.62;93.65;99069.53;1719063;80;21012;-69
2020/12/13 04:19:42;;;;;;;21.73;15.08;;;;;;;-0.63;93.71;99063.56;1711958;82;21147;-68
2020/12/13 04:22:09;;;;;;;25.27;16.73;;;;;;;-0.63;93.71;99064.00;1706683;81;21088;-69
2020/12/13 04:24:36;;;;;;;21.77;13.72;;;;;;;-0.63;93.66;99065.28;1717012;80;21708;-69
2020/12/13 04:27:03;;;;;;;22.85;14.25;;;;;;;-0.64;93.73;99055.87;1710564;81;21057;-68
2020/12/13 04:29:30;;;;;;;23.65;15.75;;;;;;;-0.64;93.73;99055.87;1713122;82;21056;-68
2020/12/13 04:31:57;;;;;;;23.40;15.30;;;;;;;-0.66;93.74;99055.91;1714087;82;21174;-69
2020/12/13 04:34:24;;;;;;;26.93;15.53;;;;;;;-0.66;93.76;99050.78;1715916;82;21055;-68
2020/12/13 04:36:53;;;;;;;23.50;17.10;;;;;;;-0.65;93.78;99061.88;1712193;82;22574;-68
2020/12/13 04:39:20;;;;;;;21.87;15.40;;;;;;;-0.65;93.77;99061.88;1715519;82;20993;-68
2020/12/13 04:41:47;;;;;;;22.65;15.72;;;;;;;-0.65;93.75;99060.59;1717947;82;21005;-69
2020/12/13 04:44:14;;;;;;;24.63;15.23;;;;;;;-0.64;93.76;99062.28;1685911;82;21278;-68
2020/12/13 04:46:45;;;;;;;20.80;13.65;;;;;;;-0.65;93.76;99061.88;1690719;83;21198;-68
2020/12/13 04:49:14;;;;;;;22.35;15.32;;;;;;;-0.65;93.78;99061.88;1716687;82;21217;-69
2020/12/13 04:51:44;;;;;;;25.82;16.17;;;;;;;-0.65;93.83;99063.16;1714538;82;21751;-69
2020/12/13 04:54:15;;;;;;;24.32;15.55;;;;;;;-0.65;93.87;99061.88;1710748;82;21072;-69
2020/12/13 04:56:43;;;;;;;20.17;14.68;;;;;;;-0.65;93.85;99064.00;1703448;82;21524;-68
2020/12/13 04:59:10;;;;;;;24.65;16.32;;;;;;;-0.66;93.85;99063.59;1705275;81;21139;-69
2020/12/13 05:01:37;;;;;;;24.40;16.73;;;;;;;-0.66;93.83;99063.59;1709057;82;21323;-69
2020/12/13 05:04:04;;;;;;;22.87;15.72;;;;;;;-0.66;93.86;99073.86;1712966;82;21222;-68
2020/12/13 05:06:31;;;;;;;22.13;14.20;;;;;;;-0.65;93.88;99070.85;1717834;82;21592;-68
2020/12/13 05:08:58;;;;;;;23.70;15.23;;;;;;;-0.66;93.87;99070.45;1709495;82;21051;-68
2020/12/13 05:11:25;;;;;;;21.95;15.08;;;;;;;-0.65;93.85;99070.85;1715881;82;21604;-69
2020/12/13 05:13:52;;;;;;;23.12;14.93;;;;;;;-0.65;93.87;99075.54;1707793;82;21631;-68
2020/12/13 05:16:19;;;;;;;21.77;14.00;;;;;;;-0.65;93.86;99072.13;1712855;82;21875;-68
2020/12/13 05:18:47;;;;;;;24.82;15.53;;;;;;;-0.65;93.86;99075.98;1712255;82;23211;-68
2020/12/13 05:21:20;;;;;;;;;;;;;;;-0.65;93.83;99082.39;1714529;82;21161;-68
2020/12/13 05:23:48;;;;;;;25.25;16.20;;;;;;;-0.63;93.85;99076.82;1704071;82;20128;-67
2020/12/13 05:26:21;;;;;;;23.20;15.00;;;;;;;-0.64;93.86;99068.69;1710243;81;21170;-69
2020/12/13 05:28:53;;;;;;;21.60;15.83;;;;;;;-0.64;93.87;99075.10;1712665;82;20989;-68
2020/12/13 05:31:24;;;;;;;24.07;15.72;;;;;;;-0.65;93.87;99064.44;1715782;81;20981;-69
2020/12/13 05:33:55;;;;;;;23.52;15.05;;;;;;;-0.63;93.92;99080.66;1712084;82;21162;-68
2020/12/13 05:36:20;;;;;;;23.27;16.23;;;;;;;-0.64;93.90;99079.82;1715689;81;21664;-69
2020/12/13 05:38:48;;;;;;;23.32;15.53;;;;;;;-0.63;93.87;99083.23;1712927;82;21565;-69
2020/12/13 05:41:16;;;;;;;23.45;15.43;;;;;;;-0.60;93.88;99090.88;1724792;81;21657;-69
2020/12/13 05:43:51;;;;;;;26.27;15.48;;;;;;;-0.60;93.91;99083.19;1712222;83;21076;-69
2020/12/13 05:46:34;;;;;;;25.52;14.33;;;;;;;-0.60;93.85;99084.47;1735509;82;20952;-68
2020/12/13 05:48:55;;;;;;;25.65;15.53;;;;;;;-0.60;93.88;99085.31;1723239;82;21588;-67
2020/12/13 05:54:25;;;;;;;22.65;15.65;;;;;;;-0.55;93.87;99083.98;1844769;77;22151;-67
2020/12/13 05:57:00;;;;;;;20.88;14.15;;;;;;;-0.60;93.85;99088.31;1787470;79;20989;-69
2020/12/13 05:59:30;;;;;;;22.85;13.80;;;;;;;-0.60;93.83;99096.01;1781110;79;21609;-68
2020/12/13 06:02:00;;;;;;;22.82;15.38;;;;;;;-0.58;93.88;99089.16;1795815;79;21616;-69
2020/12/13 06:04:30;;;;;;;23.22;15.40;;;;;;;-0.59;93.87;99097.25;1798012;79;20993;-69
2020/12/13 06:06:59;;;;;;;22.60;15.08;;;;;;;-0.59;93.86;99097.70;1795665;77;20973;-69
2020/12/13 06:09:36;;;;;;;24.40;16.23;;;;;;;-0.59;93.85;99102.82;1802523;79;21617;-69
2020/12/13 06:12:09;;;;;;;21.05;14.05;;;;;;;-0.58;93.88;99098.12;1791656;77;21984;-68
2020/12/13 06:14:37;;;;;;;21.45;15.28;;;;;;;-0.59;93.88;99099.82;1793438;79;20997;-68
2020/12/13 06:17:05;;;;;;;23.52;14.90;;;;;;;-0.60;93.96;99103.70;1802403;79;21111;-68
2020/12/13 06:19:34;;;;;;;17.40;12.07;;;;;;;-0.60;93.91;99103.70;1787105;79;21206;-68
2020/12/13 06:22:03;;;;;;;26.45;14.68;;;;;;;-0.62;94.02;99100.30;1800059;79;21175;-68
2020/12/13 06:24:31;;;;;;;21.80;14.93;;;;;;;-0.63;94.04;99096.05;1797830;79;22149;-69
2020/12/13 06:26:58;;;;;;;25.48;16.12;;;;;;;-0.63;94.07;99107.59;1801652;78;21190;-69
2020/12/13 06:29:27;;;;;;;22.82;15.15;;;;;;;-0.63;94.06;99106.30;1781030;79;20993;-69
2020/12/13 06:31:55;;;;;;;24.63;15.28;;;;;;;-0.64;94.07;99109.72;1802673;78;21490;-69
2020/12/13 06:34:22;;;;;;;21.27;14.70;;;;;;;-0.62;94.04;99114.41;1805403;79;21562;-68
2020/12/13 06:36:51;;;;;;;21.97;15.40;;;;;;;-0.60;94.01;99111.39;1803649;78;22539;-68
2020/12/13 06:39:19;;;;;;;25.92;17.10;;;;;;;-0.60;94.00;99119.09;1793875;79;21604;-68
2020/12/13 06:41:50;;;;;;;25.88;16.80;;;;;;;-0.58;94.00;99107.11;1794517;79;20981;-69
2020/12/13 06:44:18;;;;;;;27.87;16.42;;;;;;;-0.58;94.01;99114.80;1793416;77;21589;-68
2020/12/13 06:46:48;;;;;;;21.50;14.98;;;;;;;-0.58;94.03;99113.52;1800267;79;20973;-68
2020/12/13 06:49:18;;;;;;;22.67;15.65;;;;;;;-0.60;94.00;99121.65;1802069;79;21186;-68
2020/12/13 06:51:46;;;;;;;21.23;15.23;;;;;;;-0.60;94.07;99121.65;1800561;79;21574;-68
2020/12/13 06:54:17;;;;;;;22.55;15.15;;;;;;;-0.60;94.13;99121.65;1798652;79;21056;-68
2020/12/13 06:56:47;;;;;;;25.08;15.43;;;;;;;-0.62;94.13;99125.94;1796257;79;21009;-69
2020/12/13 06:59:14;;;;;;;24.67;15.72;;;;;;;-0.63;94.19;99125.53;1797519;79;21182;-68
2020/12/13 07:01:43;;;;;;;;;;;;;;;-0.63;94.19;99126.38;1805844;79;21191;-68
2020/12/13 07:04:34;;;;;;;22.70;14.13;;;;;;;-0.60;94.15;99138.31;1793998;77;20558;-69
2020/12/13 07:07:15;;;;;;;20.90;15.18;;;;;;;-0.60;94.12;99143.00;1792775;78;21129;-69
2020/12/13 07:09:39;;;;;;;23.07;15.80;;;;;;;-0.57;94.11;99143.41;1791841;78;21127;-69
2020/12/13 07:12:07;;;;;;;26.42;15.68;;;;;;;-0.57;94.10;99140.84;1799748;79;21183;-69
2020/12/13 07:14:36;;;;;;;21.15;15.25;;;;;;;-0.57;94.06;99144.69;1797127;79;21176;-69
2020/12/13 07:17:07;;;;;;;23.22;15.65;;;;;;;-0.54;94.06;99145.94;1793928;79;21586;-68
2020/12/13 07:19:38;;;;;;;26.42;16.97;;;;;;;-0.53;94.03;99138.67;1790974;79;21044;-69
2020/12/13 07:22:14;;;;;;;24.45;16.27;;;;;;;-0.52;94.03;99145.48;1793821;79;21203;-69
2020/12/13 07:24:43;;;;;;;29.07;18.75;;;;;;;-0.50;94.00;99143.77;1795707;79;21157;-68
2020/12/13 07:27:11;;;;;;;31.65;20.70;;;;;;;-0.49;93.99;99144.17;1796211;79;21185;-68
2020/12/13 07:29:40;;;;;;;35.03;20.15;;;;;;;-0.51;93.96;99144.17;1797973;79;21040;-69
2020/12/13 07:32:07;;;;;;;34.90;21.75;;;;;;;-0.51;93.99;99144.61;1795949;77;21020;-68
2020/12/13 07:34:35;;;;;;;29.92;20.62;;;;;;;-0.52;93.99;99140.36;1791598;79;21157;-68
2020/12/13 07:37:02;;;;;;;24.35;16.62;;;;;;;-0.53;94.01;99143.80;1798649;79;26352;-68
2020/12/13 07:39:29;;;;;;;23.98;15.55;;;;;;;-0.54;94.04;99140.36;1799631;79;21261;-68
2020/12/13 07:41:58;;;;;;;24.37;17.02;;;;;;;-0.53;94.05;99148.93;1800259;79;21012;-67
2020/12/13 07:44:25;;;;;;;23.73;17.12;;;;;;;-0.51;94.05;99148.46;1789355;78;21048;-68
2020/12/13 07:46:53;;;;;;;26.82;17.40;;;;;;;-0.49;94.04;99152.70;1787640;79;21155;-69
2020/12/13 07:49:22;;;;;;;28.27;19.27;;;;;;;-0.50;94.06;99154.02;1797951;79;21139;-69
2020/12/13 07:51:56;;;;;;;30.75;17.10;;;;;;;-0.50;94.08;99153.58;1794562;79;21202;-67
2020/12/13 07:54:29;;;;;;;24.77;16.12;;;;;;;-0.48;94.07;99154.83;1797478;77;21139;-69
2020/12/13 07:57:22;;;;;;;24.02;15.15;;;;;;;-0.47;94.02;99161.68;1739739;80;20988;-67
2020/12/13 07:59:51;;;;;;;21.35;13.90;;;;;;;-0.47;94.04;99161.68;1779494;80;21535;-67
2020/12/13 08:02:18;;;;;;;25.65;15.72;;;;;;;-0.44;94.06;99166.77;1777775;80;21222;-68
2020/12/13 08:04:47;;;;;;;;;;;;;;;-0.44;94.02;99169.34;1776060;80;21253;-69
2020/12/13 08:07:16;;;;;;;25.72;16.37;;;;;;;-0.43;94.03;99169.73;1775032;79;20155;-68
2020/12/13 08:09:43;;;;;;;18.15;13.50;;;;;;;-0.42;94.02;99167.61;1767610;80;21141;-69
2020/12/13 08:12:13;;;;;;;20.00;15.32;;;;;;;-0.41;94.04;99165.45;1774462;80;28311;-69
2020/12/13 08:14:41;;;;;;;21.75;13.40;;;;;;;-0.39;94.00;99175.27;1774918;80;21167;-70
2020/12/13 08:17:08;;;;;;;26.45;17.52;;;;;;;-0.38;93.98;99176.11;1774121;80;24911;-67
2020/12/13 08:19:47;;;;;;;22.58;15.35;;;;;;;-0.36;94.00;99172.66;1779080;78;21199;-69
2020/12/13 08:22:23;;;;;;;21.05;13.50;;;;;;;-0.37;93.99;99176.07;1736294;80;21060;-70
2020/12/13 08:25:01;;;;;;;23.80;15.75;;;;;;;-0.37;93.98;99177.80;1739214;81;21195;-69
2020/12/13 08:27:30;;;;;;;25.72;14.73;;;;;;;-0.35;94.00;99183.77;1717303;83;21195;-69
2020/12/13 08:29:59;;;;;;;22.85;15.75;;;;;;;-0.35;93.98;99184.61;1693639;84;21213;-68
2020/12/13 08:32:36;;;;;;;25.55;18.10;;;;;;;-0.34;93.98;99182.45;1722810;82;21632;-69
2020/12/13 08:35:14;;;;;;;;;;;;;;;-0.31;94.00;99185.01;1718771;82;21029;-69
2020/12/13 08:37:57;;;;;;;23.30;15.38;;;;;;;-0.30;93.97;99182.84;1718584;81;20308;-70
2020/12/13 08:40:43;;;;;;;22.10;15.30;;;;;;;-0.30;93.96;99187.97;1720188;83;21052;-70
2020/12/13 08:43:17;;;;;;;23.15;14.50;;;;;;;-0.28;94.00;99191.38;1722456;82;22239;-71
2020/12/13 08:45:42;;;;;;;25.95;15.48;;;;;;;-0.24;93.98;99193.02;1727210;82;21612;-71
2020/12/13 08:48:10;;;;;;;26.15;16.90;;;;;;;-0.21;93.95;99193.87;1722627;82;21581;-70
2020/12/13 08:50:40;;;;;;;;;;;;;;;-0.17;93.92;99199.36;1714557;83;21073;-71
2020/12/13 08:53:25;;;;;;;28.90;16.35;;;;;;;-0.18;93.90;99195.11;1739438;81;20244;-70
2020/12/13 08:56:12;;;;;;;23.27;14.13;;;;;;;-0.20;93.90;99196.84;1714837;83;22195;-69
2020/12/13 08:58:57;;;;;;;25.52;15.48;;;;;;;-0.16;93.94;99203.64;1722201;82;21039;-69
2020/12/13 09:01:29;;;;;;;23.27;15.15;;;;;;;-0.13;93.97;99211.30;1746085;81;21573;-70
2020/12/13 09:03:56;;;;;;;22.13;13.75;;;;;;;-0.12;93.92;99205.30;1719553;83;21582;-69
2020/12/13 09:06:36;;;;;;;27.90;15.08;;;;;;;-0.10;93.91;99202.28;1719633;81;21160;-70
2020/12/13 09:09:13;;;;;;;25.25;15.55;;;;;;;-0.10;93.91;99209.98;1711879;83;21698;-69
2020/12/13 09:11:42;;;;;;;28.95;17.52;;;;;;;-0.08;93.90;99205.69;1716950;83;21218;-70
2020/12/13 09:14:09;;;;;;;28.12;16.30;;;;;;;-0.06;93.86;99206.49;1711679;83;21702;-70
2020/12/13 09:16:36;;;;;;;23.85;15.05;;;;;;;-0.01;93.89;99201.72;1715391;83;21619;-69
2020/12/13 09:19:08;;;;;;;25.65;15.30;;;;;;;0.02;93.78;99205.12;1713148;83;21088;-69
2020/12/13 09:21:52;;;;;;;27.90;16.82;;;;;;;0.01;93.77;99197.86;1713150;83;22004;-69
2020/12/13 09:24:23;;;;;;;25.68;16.55;;;;;;;0.00;93.73;99203.88;1709495;83;21134;-67
2020/12/13 09:27:03;;;;;;;28.55;16.32;;;;;;;0.01;93.78;99203.00;1707373;83;21626;-69
2020/12/13 09:29:35;;;;;;;26.75;15.88;;;;;;;0.03;93.78;99206.40;1713221;83;21227;-68
2020/12/13 09:32:07;;;;;;;24.32;16.17;;;;;;;0.05;93.82;99209.77;1716984;83;21168;-68
2020/12/13 09:34:36;;;;;;;30.45;16.60;;;;;;;0.06;93.77;99210.20;1710938;83;21213;-69
2020/12/13 09:37:05;;;;;;;24.43;16.35;;;;;;;0.09;93.80;99208.04;1717029;81;21598;-67
2020/12/13 09:39:33;;;;;;;;;;;;;;;0.09;93.76;99206.31;1707377;83;21217;-68
2020/12/13 09:42:01;;;;;;;26.35;17.12;;;;;;;0.07;93.76;99204.19;1702449;83;20267;-68
2020/12/13 09:44:32;;;;;;;30.70;17.25;;;;;;;0.07;93.75;99205.47;1687607;84;21188;-68
2020/12/13 09:47:01;;;;;;;29.10;16.93;;;;;;;0.04;93.76;99209.37;1723932;82;21200;-67
2020/12/13 09:49:33;;;;;;;29.42;18.45;;;;;;;0.05;93.79;99205.92;1716385;82;21029;-66
2020/12/13 09:52:03;;;;;;;27.50;17.60;;;;;;;0.07;93.83;99208.05;1717227;82;21223;-67
2020/12/13 09:54:31;;;;;;;27.07;17.95;;;;;;;0.07;93.81;99199.50;1722606;82;21646;-67
2020/12/13 09:57:02;;;;;;;34.15;18.35;;;;;;;0.05;93.79;99202.07;1716972;82;21159;-66
2020/12/13 09:59:30;;;;;;;29.50;19.10;;;;;;;0.06;93.84;99193.52;1723129;82;22175;-68
2020/12/13 10:01:58;;;;;;;36.13;22.70;;;;;;;0.07;93.86;99209.33;1719536;82;21633;-67
2020/12/13 10:04:28;;;;;;;36.48;20.97;;;;;;;0.13;93.93;99218.23;1693352;82;21220;-66
2020/12/13 10:07:16;;;;;;;39.00;23.70;;;;;;;0.17;93.85;99217.33;1725725;82;21202;-67
2020/12/13 10:09:27;;;;;;;41.55;24.27;;;;;;;0.21;93.83;99220.26;1687181;82;21165;-68
2020/12/13 10:11:54;;;;;;;32.75;22.22;;;;;;;0.27;93.80;99222.34;1722557;82;21605;-68
2020/12/13 10:14:22;;;;;;;33.30;21.57;;;;;;;0.32;93.73;99220.56;1692495;82;21006;-67
2020/12/13 10:16:52;;;;;;;37.35;22.85;;;;;;;0.34;93.70;99219.67;1722844;82;29074;-67
2020/12/13 10:19:19;;;;;;;40.85;23.57;;;;;;;0.38;93.69;99215.33;1724086;82;21230;-68
2020/12/13 10:21:46;;;;;;;44.90;25.00;;;;;;;0.44;93.73;99222.94;1685914;84;27268;-67
2020/12/13 10:24:20;;;;;;;39.00;23.95;;;;;;;0.53;93.77;99227.94;1694805;84;21091;-69
2020/12/13 10:26:49;;;;;;;36.10;22.55;;;;;;;0.61;93.68;99232.53;1702933;83;21065;-67
2020/12/13 10:29:17;;;;;;;29.45;20.10;;;;;;;0.66;93.60;99234.61;1691715;82;21606;-66
2020/12/13 10:31:46;;;;;;;33.95;19.50;;;;;;;0.72;93.45;99227.68;1724542;82;21143;-68
2020/12/13 10:34:17;;;;;;;31.15;20.60;;;;;;;0.76;93.48;99231.48;1716919;82;21862;-67
2020/12/13 10:36:49;;;;;;;31.62;20.10;;;;;;;0.82;93.50;99235.67;1717403;82;21598;-68
2020/12/13 10:39:19;;;;;;;36.45;21.35;;;;;;;0.85;93.32;99235.18;1717598;82;21753;-69
2020/12/13 10:41:45;;;;;;;38.48;20.20;;;;;;;0.89;93.35;99231.67;1725692;82;21953;-70
2020/12/13 10:44:19;;;;;;;29.57;18.98;;;;;;;0.96;93.42;99232.45;1722810;82;21214;-69
2020/12/13 10:46:49;;;;;;;32.00;21.02;;;;;;;0.99;93.30;99227.69;1718569;82;20978;-69
2020/12/13 10:49:16;;;;;;;32.53;19.57;;;;;;;1.03;93.33;99219.88;1717633;82;22120;-70
2020/12/13 10:51:52;;;;;;;34.05;20.82;;;;;;;1.09;93.29;99226.23;1670764;84;21184;-69
2020/12/13 10:54:21;;;;;;;37.30;21.50;;;;;;;1.14;93.32;99222.72;1717869;82;21725;-69
2020/12/13 10:56:52;;;;;;;35.80;21.23;;;;;;;1.17;93.26;99220.09;1720703;82;21084;-70
2020/12/13 10:59:20;;;;;;;32.73;21.02;;;;;;;1.18;93.13;99220.09;1698979;82;21238;-69
2020/12/13 11:01:48;;;;;;;35.33;20.12;;;;;;;1.19;93.05;99223.50;1711686;82;22227;-70
2020/12/13 11:04:18;;;;;;;50.70;34.35;;;;;;;1.22;93.20;99223.44;1728251;82;21033;-70
2020/12/13 11:06:50;;;;;;;46.70;30.48;;;;;;;1.23;93.12;99217.41;1718556;82;21224;-69
2020/12/13 11:09:17;;;;;;;44.73;29.30;;;;;;;1.26;93.16;99224.66;1726048;82;21037;-68
2020/12/13 11:11:45;;;;;;;42.45;25.52;;;;;;;1.31;93.20;99225.84;1726694;81;21176;-67
2020/12/13 11:14:14;;;;;;;36.65;22.42;;;;;;;1.29;93.07;99227.62;1708489;82;21587;-67
2020/12/13 11:16:47;;;;;;;39.30;23.55;;;;;;;1.29;93.07;99221.19;1713984;82;21211;-66
2020/12/13 11:19:15;;;;;;;36.28;23.27;;;;;;;1.32;93.17;99222.42;1716408;82;21144;-66
2020/12/13 11:21:46;;;;;;;39.85;22.87;;;;;;;1.38;93.20;99223.59;1716598;82;21553;-67
2020/12/13 11:24:16;;;;;;;40.55;23.87;;;;;;;1.39;93.12;99223.98;1720018;82;21168;-67
2020/12/13 11:27:11;;;;;;;42.13;25.02;;;;;;;1.42;93.05;99228.23;1695322;83;21297;-67
2020/12/13 11:29:39;;;;;;;49.25;29.12;;;;;;;1.41;93.00;99231.25;1628211;86;21213;-67
2020/12/13 11:32:10;;;;;;;42.75;25.62;;;;;;;1.41;93.11;99223.53;1629202;86;21221;-68
2020/12/13 11:34:37;;;;;;;40.90;24.60;;;;;;;1.45;93.13;99228.17;1631648;86;21570;-68